Aérodrome :
LOGIN :

S'inscrire | Disclaimer

   EN    FR    IT 

 










Légende :    VFR   VFR Marginal   IFR   IFR Intensif   IFR Très Intensif
Visi : 
Plafond : 
>= 8 km
>= 3000ft
5 à 8 km
1000 à 3000 ft
1500m à 5 km
500 à 1000 ft
800 à 1500m
200 à 500 ft
< 800m
< 200 ft
Symboles :   Orages  Brouillard  Fortes neiges  Fortes précipitations  Vent > 20 kt
SIGMETs :   Divers  Orages  Givrage  Turbulence  Onde Orograph.  Cendres Volcan.






- Altitude de l'aérodrome : 1895 ft


LSMM - Meiringen

DERNIER METAR :
  • 041450Z AUTO 13007KT 080V160 5000NDV -SHRA FEW027 BKN057 16/15 Q1013 RMK

METARs EXPIRÉS :
  • 041420Z AUTO 11007KT 070V130 5000NDV -RA FEW013 SCT030 16/15 Q1013 RMK
  • 041350Z AUTO 13004KT 100V160 4900NDV -RA FEW014 BKN027 16/15 Q1014 RMK
  • 041320Z AUTO VRB02KT 4800NDV -SHRA OVC028 15/15 Q1014 RMK
  • 041250Z AUTO VRB02KT 4100NDV -SHRA BKN027 BKN051 16/15 Q1014 RMK
  • 041220Z AUTO 13004KT 070V190 4600NDV -SHRA SCT027 SCT059 BKN071 16/14 Q1014 RMK

Prévision TAF périmée.



MET'MAP, la Météo Aéronautique d'un coup d'oeil ! - Copyright ORBIFLY Décembre 2007 - Disclaimer

ORBIFLY MET'MAP TEAM :

Programmation & Développement : Alexandra Zaïnal
Sur une idée originale de : Baudouin d'Aumeries
Assistance à la programmation : Marc-Olivier Méhu
Soutien technique & logistique : Manuel Goepfert

Contact : metmap@orbifly.com




SOURCES & CREDITS :

   NOAA